Time;durP1;ratioP1;P1;durP2;ratioP2;P2;SDS_P1;SDS_P2;PMS_P1;PMS_P2;Temp;Humidity;BMP_temperature;BMP_pressure;BME280_temperature;BME280_humidity;BME280_pressure;Samples;Min_cycle;Max_cycle;Signal;HPM_P1;HPM_P2
2021/05/16 00:01:17;;;;;;;8.87;8.40;;;11.30;99.90;;;;;;4994195;28;20479;-69
2021/05/16 00:03:43;;;;;;;8.63;8.23;;;11.30;99.90;;;;;;4993938;28;20504;-69
2021/05/16 00:06:11;;;;;;;8.40;8.10;;;11.30;99.90;;;;;;4994006;28;20451;-69
2021/05/16 00:08:37;;;;;;;8.90;8.60;;;11.30;99.90;;;;;;4994023;28;20545;-69
2021/05/16 00:11:03;;;;;;;8.87;8.47;;;11.30;99.90;;;;;;4993984;28;20979;-69
2021/05/16 00:13:30;;;;;;;9.30;8.80;;;11.30;99.90;;;;;;4994034;28;20466;-69
2021/05/16 00:15:56;;;;;;;8.77;8.47;;;11.30;99.90;;;;;;4994050;28;21035;-69
2021/05/16 00:18:22;;;;;;;8.90;8.50;;;11.30;99.90;;;;;;4993969;28;20455;-69
2021/05/16 00:20:49;;;;;;;8.37;7.97;;;11.30;99.90;;;;;;4993666;28;20815;-68
2021/05/16 00:23:16;;;;;;;8.83;8.43;;;11.40;99.90;;;;;;4993823;28;20459;-69
2021/05/16 00:25:44;;;;;;;8.93;8.53;;;11.40;99.90;;;;;;4993866;28;20470;-69
2021/05/16 00:28:10;;;;;;;8.40;8.10;;;11.40;99.90;;;;;;4994118;28;20458;-69
2021/05/16 00:30:37;;;;;;;9.17;8.87;;;11.40;99.90;;;;;;4993634;28;20469;-69
2021/05/16 00:33:03;;;;;;;8.70;8.30;;;11.40;99.90;;;;;;4993692;28;20443;-69
2021/05/16 00:35:30;;;;;;;8.63;8.23;;;11.40;99.90;;;;;;4993520;28;20486;-69
2021/05/16 00:37:58;;;;;;;8.77;8.47;;;11.50;99.90;;;;;;4993860;28;20459;-69
2021/05/16 00:40:26;;;;;;;8.50;8.07;;;11.50;99.90;;;;;;4993620;28;20474;-69
2021/05/16 00:42:52;;;;;;;8.97;8.63;;;11.50;99.90;;;;;;4993483;28;20520;-69
2021/05/16 00:45:20;;;;;;;8.90;8.60;;;11.60;99.90;;;;;;4993406;28;20454;-69
2021/05/16 00:47:49;;;;;;;8.67;8.23;;;11.60;99.90;;;;;;4992714;28;20464;-69
2021/05/16 00:50:17;;;;;;;8.43;8.13;;;11.60;99.90;;;;;;4993654;28;20458;-69
2021/05/16 00:52:43;;;;;;;8.50;8.17;;;11.60;99.90;;;;;;4993421;28;20453;-69
2021/05/16 00:55:11;;;;;;;8.50;8.20;;;11.70;99.90;;;;;;4993305;28;20478;-68
2021/05/16 00:57:39;;;;;;;9.10;8.60;;;11.60;99.90;;;;;;4993530;28;20459;-68
2021/05/16 01:00:09;;;;;;;8.60;8.20;;;11.60;99.90;;;;;;4992977;28;20461;-68
2021/05/16 01:02:35;;;;;;;9.23;8.77;;;11.60;99.90;;;;;;4992679;28;20474;-68
2021/05/16 01:05:03;;;;;;;8.53;8.23;;;11.70;99.90;;;;;;4993032;28;20447;-68
2021/05/16 01:07:29;;;;;;;8.50;8.20;;;11.70;99.90;;;;;;4993493;28;20455;-68
2021/05/16 01:09:55;;;;;;;8.80;8.47;;;11.60;99.90;;;;;;4993135;28;20469;-68
2021/05/16 01:12:29;;;;;;;9.40;9.00;;;11.50;99.90;;;;;;4992908;28;20505;-70
2021/05/16 01:14:58;;;;;;;9.30;8.90;;;11.40;99.90;;;;;;4992848;28;20579;-70
2021/05/16 01:17:25;;;;;;;9.10;8.60;;;11.40;99.90;;;;;;4992992;28;20454;-69
2021/05/16 01:19:51;;;;;;;8.30;8.00;;;11.30;99.90;;;;;;4992839;28;20454;-69
2021/05/16 01:22:18;;;;;;;8.40;8.13;;;11.30;99.90;;;;;;4992786;28;20459;-69
2021/05/16 01:24:47;;;;;;;9.33;8.93;;;11.40;99.90;;;;;;4992692;28;20525;-69
2021/05/16 01:27:14;;;;;;;8.90;8.50;;;11.40;99.90;;;;;;4992764;28;20601;-68
2021/05/16 01:29:41;;;;;;;9.53;9.03;;;11.50;99.90;;;;;;4992662;28;20447;-68
2021/05/16 01:32:11;;;;;;;9.40;9.00;;;11.50;99.90;;;;;;4992491;28;20500;-69
2021/05/16 01:34:38;;;;;;;8.90;8.60;;;11.50;99.90;;;;;;4992502;28;20515;-68
2021/05/16 01:37:04;;;;;;;8.80;8.50;;;11.50;99.90;;;;;;4992424;28;20853;-69
2021/05/16 01:39:31;;;;;;;8.97;8.43;;;11.50;99.90;;;;;;4992457;28;20458;-69
2021/05/16 01:41:58;;;;;;;9.17;8.77;;;11.50;99.90;;;;;;4992810;28;20458;-68
2021/05/16 01:44:24;;;;;;;9.10;8.80;;;11.60;99.90;;;;;;4992500;28;20508;-68
2021/05/16 01:46:51;;;;;;;8.97;8.67;;;11.60;99.90;;;;;;4991857;28;20450;-68
2021/05/16 01:49:18;;;;;;;9.50;9.10;;;11.70;99.90;;;;;;4992047;28;20492;-68
2021/05/16 01:51:44;;;;;;;8.33;8.03;;;11.60;99.90;;;;;;4991958;28;20945;-69
2021/05/16 01:54:11;;;;;;;10.00;9.57;;;11.50;99.90;;;;;;4992398;28;20473;-69
2021/05/16 01:56:38;;;;;;;10.30;9.50;;;11.60;99.90;;;;;;4991880;28;20457;-69
2021/05/16 01:59:05;;;;;;;9.53;8.93;;;11.50;99.90;;;;;;4991691;28;20447;-69
2021/05/16 02:01:32;;;;;;;9.00;8.53;;;11.40;99.90;;;;;;4991305;28;20474;-69
2021/05/16 02:03:59;;;;;;;9.17;8.77;;;11.40;99.90;;;;;;4991874;28;21068;-69
2021/05/16 02:06:25;;;;;;;10.00;9.50;;;11.40;99.90;;;;;;4992254;28;20446;-68
2021/05/16 02:08:52;;;;;;;9.33;9.00;;;11.40;99.90;;;;;;4991909;28;20449;-68
2021/05/16 02:11:18;;;;;;;10.47;9.43;;;11.30;99.90;;;;;;4991864;28;20453;-68
2021/05/16 02:13:45;;;;;;;9.13;8.53;;;11.20;99.90;;;;;;4991881;28;20450;-68
2021/05/16 02:16:12;;;;;;;9.83;9.23;;;11.20;99.90;;;;;;4991677;28;20510;-68
2021/05/16 02:18:39;;;;;;;9.80;9.20;;;11.30;99.90;;;;;;4991749;28;20458;-68
2021/05/16 02:21:09;;;;;;;10.27;9.57;;;11.30;99.90;;;;;;4991693;28;20952;-69
2021/05/16 02:23:39;;;;;;;9.27;8.93;;;11.40;99.90;;;;;;4991793;28;20457;-68
2021/05/16 02:26:05;;;;;;;9.87;9.27;;;11.40;99.90;;;;;;4991791;28;20462;-69
2021/05/16 02:28:31;;;;;;;10.20;9.70;;;11.30;99.90;;;;;;4991443;28;20454;-69
2021/05/16 02:30:59;;;;;;;9.40;8.80;;;11.40;99.90;;;;;;4991935;28;20451;-68
2021/05/16 02:33:25;;;;;;;9.90;9.40;;;11.30;99.90;;;;;;4991740;28;20456;-68
2021/05/16 02:35:51;;;;;;;9.23;8.83;;;11.30;99.90;;;;;;4991716;28;20480;-68
2021/05/16 02:38:18;;;;;;;9.27;8.77;;;11.30;99.90;;;;;;4991554;28;20455;-68
2021/05/16 02:40:44;;;;;;;9.77;9.37;;;11.20;99.90;;;;;;4991420;28;20513;-68
2021/05/16 02:43:10;;;;;;;11.20;10.50;;;11.20;99.90;;;;;;4991721;28;20443;-68
2021/05/16 02:45:36;;;;;;;12.10;11.60;;;11.10;99.90;;;;;;4991471;28;20451;-69
2021/05/16 02:48:04;;;;;;;10.23;9.83;;;11.00;99.90;;;;;;4991244;28;20492;-69
2021/05/16 02:50:30;;;;;;;11.40;10.90;;;11.00;99.90;;;;;;4991422;28;20461;-70
2021/05/16 02:52:56;;;;;;;11.97;11.20;;;10.90;99.90;;;;;;4991842;28;20465;-69
2021/05/16 02:55:23;;;;;;;12.37;11.87;;;10.80;99.90;;;;;;4991234;28;20493;-69
2021/05/16 02:57:49;;;;;;;16.23;15.57;;;10.80;99.90;;;;;;4991298;28;20462;-69
2021/05/16 03:00:16;;;;;;;18.83;17.90;;;10.80;99.90;;;;;;4991309;28;20866;-71
2021/05/16 03:02:42;;;;;;;20.87;19.87;;;10.70;99.90;;;;;;4991153;28;20848;-71
2021/05/16 03:05:10;;;;;;;20.40;19.40;;;10.70;99.90;;;;;;4991378;28;20458;-71
2021/05/16 03:07:36;;;;;;;22.20;21.20;;;10.70;99.90;;;;;;4991492;28;20829;-72
2021/05/16 03:10:04;;;;;;;22.80;21.80;;;10.70;99.90;;;;;;4991119;28;20486;-72
2021/05/16 03:12:30;;;;;;;22.30;21.30;;;10.80;99.90;;;;;;4993868;28;20450;-72
2021/05/16 03:14:56;;;;;;;21.20;20.40;;;10.80;99.90;;;;;;4995069;28;20493;-72
2021/05/16 03:17:22;;;;;;;21.07;20.23;;;10.80;99.90;;;;;;4995205;28;20517;-73
2021/05/16 03:19:49;;;;;;;20.83;19.87;;;10.80;99.90;;;;;;4994882;28;20453;-73
2021/05/16 03:22:16;;;;;;;21.60;20.60;;;10.90;99.90;;;;;;4994949;28;20960;-72
2021/05/16 03:24:43;;;;;;;21.20;20.27;;;10.80;99.90;;;;;;4994971;28;20490;-71
2021/05/16 03:27:09;;;;;;;21.23;20.40;;;10.80;99.90;;;;;;4994675;28;20489;-71
2021/05/16 03:29:35;;;;;;;20.73;19.83;;;10.90;99.90;;;;;;4994790;28;20462;-71
2021/05/16 03:32:02;;;;;;;21.23;19.80;;;10.90;99.90;;;;;;4994944;28;20934;-71
2021/05/16 03:34:28;;;;;;;20.10;19.20;;;10.90;99.90;;;;;;4994499;28;20543;-71
2021/05/16 03:36:54;;;;;;;20.27;19.47;;;10.90;99.90;;;;;;4994896;28;20462;-71
2021/05/16 03:39:21;;;;;;;20.40;19.70;;;10.90;99.90;;;;;;4994541;28;20865;-71
2021/05/16 03:41:49;;;;;;;19.60;18.70;;;10.90;99.90;;;;;;4994532;28;20453;-71
2021/05/16 03:44:15;;;;;;;20.40;19.40;;;10.90;99.90;;;;;;4994500;28;20505;-71
2021/05/16 03:46:42;;;;;;;19.10;18.43;;;10.90;99.90;;;;;;4994765;28;20868;-72
2021/05/16 03:49:08;;;;;;;19.20;18.40;;;10.90;99.90;;;;;;4994609;28;20447;-70
2021/05/16 03:51:34;;;;;;;19.63;18.63;;;10.90;99.90;;;;;;4994511;28;20451;-71
2021/05/16 03:54:00;;;;;;;17.67;16.73;;;10.80;99.90;;;;;;4994171;28;20450;-70
2021/05/16 03:56:27;;;;;;;19.63;18.83;;;10.80;99.90;;;;;;4994383;28;20490;-70
2021/05/16 03:58:54;;;;;;;20.33;19.43;;;10.90;99.90;;;;;;4994366;28;20519;-70
2021/05/16 04:01:21;;;;;;;20.17;19.17;;;10.80;99.90;;;;;;4993760;28;20553;-70
2021/05/16 04:03:47;;;;;;;19.53;18.70;;;10.80;99.90;;;;;;4994105;28;20824;-70
2021/05/16 04:06:13;;;;;;;19.80;19.00;;;10.80;99.90;;;;;;4994185;28;20451;-71
2021/05/16 04:08:39;;;;;;;20.47;19.67;;;10.80;99.90;;;;;;4994146;28;20451;-71
2021/05/16 04:11:05;;;;;;;20.97;20.17;;;10.90;99.90;;;;;;4994032;28;20503;-71
2021/05/16 04:13:32;;;;;;;22.60;21.70;;;10.90;99.90;;;;;;4993977;28;20930;-72
2021/05/16 04:15:59;;;;;;;26.20;24.67;;;10.90;99.90;;;;;;4993929;28;20498;-70
2021/05/16 04:18:25;;;;;;;24.70;23.60;;;10.90;99.90;;;;;;4994114;28;20456;-71
2021/05/16 04:20:52;;;;;;;25.97;24.93;;;10.90;99.90;;;;;;4994054;28;20455;-72
2021/05/16 04:23:18;;;;;;;26.50;25.30;;;10.80;99.90;;;;;;4993052;28;20768;-73
2021/05/16 04:25:44;;;;;;;25.20;24.10;;;10.80;99.90;;;;;;4993799;28;20450;-73
2021/05/16 04:28:11;;;;;;;23.63;22.73;;;10.80;99.90;;;;;;4993684;28;20462;-73
2021/05/16 04:30:37;;;;;;;25.20;24.23;;;10.70;99.90;;;;;;4993792;28;20458;-72
2021/05/16 04:33:04;;;;;;;22.20;21.30;;;10.70;99.90;;;;;;4993635;28;20541;-72
2021/05/16 04:35:30;;;;;;;21.30;20.30;;;10.70;99.90;;;;;;4993957;28;20523;-72
2021/05/16 04:37:56;;;;;;;20.20;19.30;;;10.70;99.90;;;;;;4993671;28;20459;-71
2021/05/16 04:40:23;;;;;;;19.10;18.40;;;10.70;99.90;;;;;;4993653;28;20458;-71
2021/05/16 04:42:49;;;;;;;18.07;17.37;;;10.70;99.90;;;;;;4993533;28;20463;-70
2021/05/16 04:45:16;;;;;;;16.30;15.70;;;10.80;99.90;;;;;;4993433;28;20966;-70
2021/05/16 04:47:43;;;;;;;15.60;14.90;;;10.80;99.90;;;;;;4993423;28;20453;-70
2021/05/16 04:50:10;;;;;;;14.17;13.70;;;10.80;99.90;;;;;;4993352;28;20446;-70
2021/05/16 04:52:36;;;;;;;13.70;13.20;;;10.90;99.90;;;;;;4993479;28;20509;-70
2021/05/16 04:55:03;;;;;;;13.77;13.27;;;11.00;99.90;;;;;;4993187;28;20494;-70
2021/05/16 04:57:29;;;;;;;13.13;12.60;;;11.10;99.90;;;;;;4993195;28;20820;-70
2021/05/16 04:59:56;;;;;;;13.50;13.00;;;11.20;99.90;;;;;;4993298;28;20468;-70
2021/05/16 05:02:22;;;;;;;13.50;13.00;;;11.20;99.90;;;;;;4992765;28;20812;-71
2021/05/16 05:04:50;;;;;;;12.70;12.20;;;11.30;99.90;;;;;;4993055;28;20450;-71
2021/05/16 05:07:16;;;;;;;12.77;12.10;;;11.30;99.90;;;;;;4993030;28;20513;-71
2021/05/16 05:09:43;;;;;;;12.37;11.70;;;11.40;99.90;;;;;;4992962;28;20450;-71
2021/05/16 05:12:09;;;;;;;12.90;12.50;;;11.40;99.90;;;;;;4993023;28;20470;-71
2021/05/16 05:14:35;;;;;;;12.00;11.50;;;11.60;99.90;;;;;;4992849;28;20462;-70
2021/05/16 05:17:02;;;;;;;11.43;11.03;;;11.70;99.90;;;;;;4992930;28;20450;-70
2021/05/16 05:19:28;;;;;;;11.80;11.40;;;11.90;99.90;;;;;;4992612;28;20945;-70
2021/05/16 05:21:55;;;;;;;13.13;12.73;;;12.00;99.90;;;;;;4992949;28;20499;-71
2021/05/16 05:24:22;;;;;;;12.40;11.90;;;12.30;99.90;;;;;;4993005;28;20527;-70
2021/05/16 05:26:48;;;;;;;12.10;11.70;;;12.60;99.90;;;;;;4992587;28;20465;-70
2021/05/16 05:29:15;;;;;;;10.93;10.63;;;12.70;99.90;;;;;;4992158;28;20458;-70
2021/05/16 05:31:43;;;;;;;11.80;11.30;;;12.40;99.90;;;;;;4993064;28;20490;-70
2021/05/16 05:34:10;;;;;;;11.77;11.37;;;12.30;99.90;;;;;;4992589;28;20482;-70
2021/05/16 05:36:36;;;;;;;12.30;11.70;;;12.30;99.90;;;;;;4992657;28;20486;-70
2021/05/16 05:39:04;;;;;;;12.80;12.10;;;12.40;99.90;;;;;;4992269;28;21031;-70
2021/05/16 05:41:30;;;;;;;12.03;11.53;;;12.40;99.90;;;;;;4992318;28;20510;-71
2021/05/16 05:43:56;;;;;;;14.63;14.03;;;12.30;99.90;;;;;;4992338;28;20454;-72
2021/05/16 05:46:23;;;;;;;17.77;17.10;;;12.30;99.90;;;;;;4992425;28;20442;-73
2021/05/16 05:48:49;;;;;;;17.50;16.90;;;12.10;99.90;;;;;;4992150;28;20497;-73
2021/05/16 05:51:15;;;;;;;17.23;16.53;;;12.00;99.90;;;;;;4992141;28;20455;-73
2021/05/16 05:53:42;;;;;;;16.60;16.00;;;11.70;99.90;;;;;;4992464;28;20461;-72
2021/05/16 05:56:09;;;;;;;17.00;16.40;;;11.70;99.90;;;;;;4992158;28;20486;-72
2021/05/16 05:58:36;;;;;;;18.33;17.43;;;11.50;99.90;;;;;;4992178;28;20451;-72
2021/05/16 06:01:03;;;;;;;18.37;17.60;;;11.60;99.90;;;;;;4991841;28;20556;-73
2021/05/16 06:03:29;;;;;;;18.30;17.50;;;11.60;99.90;;;;;;4991942;28;20883;-72
2021/05/16 06:05:55;;;;;;;17.93;17.00;;;11.60;99.90;;;;;;4992337;28;20811;-73
2021/05/16 06:08:21;;;;;;;17.20;16.40;;;11.80;99.90;;;;;;4991801;28;20955;-72
2021/05/16 06:10:48;;;;;;;17.00;16.40;;;11.90;99.90;;;;;;4992032;28;20455;-74
2021/05/16 06:13:15;;;;;;;17.73;16.63;;;11.80;99.90;;;;;;4992088;28;20562;-72
2021/05/16 06:15:42;;;;;;;15.97;15.37;;;11.80;99.90;;;;;;4991899;28;20493;-72
2021/05/16 06:18:08;;;;;;;14.33;13.83;;;11.80;99.90;;;;;;4991903;28;20455;-72
2021/05/16 06:20:34;;;;;;;13.70;13.20;;;11.80;99.90;;;;;;4991745;28;20888;-72
2021/05/16 06:23:03;;;;;;;12.37;11.77;;;12.00;99.90;;;;;;4991631;28;20455;-72
2021/05/16 06:25:29;;;;;;;12.23;11.83;;;12.30;99.90;;;;;;4991640;28;20446;-71
2021/05/16 06:27:56;;;;;;;12.13;11.63;;;12.40;99.90;;;;;;4991771;28;20455;-70
2021/05/16 06:30:23;;;;;;;12.00;11.50;;;12.50;99.90;;;;;;4991586;28;20504;-72
2021/05/16 06:32:50;;;;;;;11.40;10.90;;;12.40;99.90;;;;;;4991397;28;20453;-72
2021/05/16 06:35:16;;;;;;;11.70;11.10;;;12.40;99.90;;;;;;4991459;28;20486;-73
2021/05/16 06:37:42;;;;;;;11.10;10.70;;;12.50;99.90;;;;;;4991712;28;20457;-73
2021/05/16 06:40:11;;;;;;;11.40;11.10;;;12.90;99.90;;;;;;4991672;28;20455;-73
2021/05/16 06:42:37;;;;;;;10.97;10.50;;;13.20;99.90;;;;;;4991358;28;20469;-73
2021/05/16 06:45:04;;;;;;;11.17;10.80;;;13.30;99.90;;;;;;4991484;28;20442;-72
2021/05/16 06:47:31;;;;;;;10.97;10.50;;;13.30;99.90;;;;;;4994547;28;20447;-73
2021/05/16 06:49:57;;;;;;;10.50;10.10;;;13.80;99.90;;;;;;4995424;28;20457;-73
2021/05/16 06:52:23;;;;;;;11.00;10.60;;;14.30;99.90;;;;;;4995671;28;20513;-73
2021/05/16 06:54:50;;;;;;;10.80;10.27;;;14.40;99.90;;;;;;4995306;28;20482;-72
2021/05/16 06:57:16;;;;;;;11.17;10.77;;;14.30;99.90;;;;;;4995416;28;20446;-72
2021/05/16 06:59:42;;;;;;;11.80;11.30;;;14.30;99.90;;;;;;4995508;28;20466;-72
2021/05/16 07:02:09;;;;;;;11.33;10.93;;;14.20;99.90;;;;;;4995091;28;20481;-72
2021/05/16 07:04:36;;;;;;;10.77;10.20;;;14.70;99.90;;;;;;5002739;28;20846;-72
2021/05/16 07:07:02;;;;;;;10.10;9.80;;;15.40;99.90;;;;;;5014372;28;20604;-70
2021/05/16 07:09:28;;;;;;;11.10;10.70;;;15.70;99.90;;;;;;5014445;28;20507;-70
2021/05/16 07:11:55;;;;;;;10.83;10.37;;;15.80;99.90;;;;;;5014337;28;20445;-71
2021/05/16 07:14:21;;;;;;;9.97;9.67;;;15.70;99.90;;;;;;5014354;28;20445;-70
2021/05/16 07:16:47;;;;;;;10.07;9.77;;;15.70;99.90;;;;;;5014303;28;20493;-70
2021/05/16 07:19:14;;;;;;;10.20;9.80;;;15.60;99.90;;;;;;5014358;28;20952;-69
2021/05/16 07:21:41;;;;;;;9.90;9.50;;;15.70;99.90;;;;;;5014394;28;20947;-70
2021/05/16 07:24:08;;;;;;;9.80;9.40;;;16.10;99.90;;;;;;5014245;28;20457;-69
2021/05/16 07:26:34;;;;;;;10.47;10.00;;;16.30;99.90;;;;;;5014139;28;20868;-69
2021/05/16 07:29:00;;;;;;;10.47;9.97;;;16.00;99.90;;;;;;5013908;28;20975;-68
2021/05/16 07:31:26;;;;;;;10.03;9.60;;;15.70;99.90;;;;;;5014392;28;20449;-69
2021/05/16 07:33:53;;;;;;;10.47;9.97;;;15.20;99.90;;;;;;5014264;28;20458;-69
2021/05/16 07:36:19;;;;;;;10.20;9.90;;;15.20;99.90;;;;;;5014103;28;20485;-68
2021/05/16 07:38:46;;;;;;;10.00;9.50;;;15.10;99.90;;;;;;5013776;28;20496;-68
2021/05/16 07:41:13;;;;;;;10.00;9.70;;;15.40;99.90;;;;;;5014168;28;20967;-68
2021/05/16 07:43:39;;;;;;;9.77;9.47;;;15.70;99.90;;;;;;5014056;28;20668;-68
2021/05/16 07:46:05;;;;;;;10.20;9.80;;;15.80;99.90;;;;;;5013941;28;20457;-68
2021/05/16 07:48:32;;;;;;;9.67;9.27;;;16.10;99.90;;;;;;5013884;28;20795;-68
2021/05/16 07:51:00;;;;;;;9.63;9.33;;;16.20;99.90;;;;;;5013847;28;20515;-68
2021/05/16 07:53:28;;;;;;;9.93;9.63;;;16.50;99.90;;;;;;5013839;28;20449;-69
2021/05/16 07:55:55;;;;;;;10.10;9.70;;;16.90;99.90;;;;;;5013735;28;20485;-68
2021/05/16 07:58:21;;;;;;;10.17;9.80;;;16.80;99.90;;;;;;5012362;28;20450;-68
2021/05/16 08:00:48;;;;;;;10.10;9.80;;;16.70;99.90;;;;;;5013443;28;20453;-68
2021/05/16 08:03:14;;;;;;;10.50;10.00;;;16.70;99.90;;;;;;5013334;28;20477;-68
2021/05/16 08:05:40;;;;;;;10.33;9.83;;;17.00;99.90;;;;;;5013274;28;20465;-68
2021/05/16 08:08:06;;;;;;;10.60;9.80;;;17.40;99.90;;;;;;5013319;28;21009;-69
2021/05/16 08:10:33;;;;;;;9.60;9.30;;;17.80;99.50;;;;;;5013195;28;20819;-68
2021/05/16 08:13:00;;;;;;;11.83;11.23;;;17.30;99.50;;;;;;5013167;28;20821;-69
2021/05/16 08:15:26;;;;;;;11.00;10.60;;;17.10;99.90;;;;;;5013234;28;20485;-70
2021/05/16 08:17:53;;;;;;;15.10;14.50;;;16.50;99.90;;;;;;5013146;28;20450;-72
2021/05/16 08:20:19;;;;;;;24.07;23.07;;;15.80;99.90;;;;;;5013135;28;20450;-72
2021/05/16 08:22:45;;;;;;;24.07;23.17;;;15.00;99.90;;;;;;5013350;28;20454;-72
2021/05/16 08:25:13;;;;;;;23.10;22.30;;;14.30;99.90;;;;;;5013204;28;20816;-72
2021/05/16 08:27:40;;;;;;;24.43;23.30;;;14.10;99.90;;;;;;5013077;28;20836;-72
2021/05/16 08:30:08;;;;;;;23.63;22.73;;;13.80;99.90;;;;;;5012931;28;20446;-73
2021/05/16 08:32:34;;;;;;;23.43;22.43;;;13.70;99.90;;;;;;5012812;28;20460;-73
2021/05/16 08:35:00;;;;;;;21.37;20.33;;;13.60;99.90;;;;;;5012705;28;21030;-73
2021/05/16 08:37:27;;;;;;;18.60;17.70;;;13.80;99.90;;;;;;5013081;28;20450;-72
2021/05/16 08:39:53;;;;;;;18.40;17.70;;;14.30;99.90;;;;;;5012882;28;20454;-72
2021/05/16 08:42:20;;;;;;;13.20;12.80;;;14.90;99.90;;;;;;5012814;28;20476;-72
2021/05/16 08:44:47;;;;;;;12.90;12.30;;;16.10;99.90;;;;;;5012633;28;20457;-72
2021/05/16 08:47:15;;;;;;;12.60;12.20;;;17.70;99.90;;;;;;5012746;28;20450;-73
2021/05/16 08:49:41;;;;;;;11.60;11.10;;;19.30;99.90;;;;;;5012708;28;20483;-74
2021/05/16 08:52:07;;;;;;;11.80;11.30;;;20.10;99.90;;;;;;5012542;28;20831;-72
2021/05/16 08:54:34;;;;;;;11.53;10.90;;;20.60;97.00;;;;;;5012592;28;20446;-73
2021/05/16 08:57:00;;;;;;;10.77;10.37;;;21.40;96.80;;;;;;5012401;28;20490;-72
2021/05/16 08:59:27;;;;;;;11.20;10.80;;;21.30;96.60;;;;;;5012831;28;20865;-72
2021/05/16 09:01:54;;;;;;;11.40;10.83;;;20.80;95.90;;;;;;5009786;28;20972;-72
2021/05/16 09:04:28;;;;;;;11.67;11.00;;;20.40;97.20;;;;;;5012638;28;20992;-71
2021/05/16 09:06:56;;;;;;;11.27;10.87;;;20.60;96.10;;;;;;5012408;28;20454;-70
2021/05/16 09:09:31;;;;;;;10.90;10.43;;;20.70;97.60;;;;;;5011947;28;20450;-70
2021/05/16 09:11:59;;;;;;;11.07;10.57;;;21.10;96.30;;;;;;5012334;28;20449;-69
2021/05/16 09:14:42;;;;;;;11.50;10.90;;;21.80;93.70;;;;;;5012487;28;20461;-70
2021/05/16 09:17:36;;;;;;;12.00;11.50;;;23.00;93.00;;;;;;5012420;28;20442;-69
2021/05/16 09:20:06;;;;;;;11.63;11.17;;;24.50;91.20;;;;;;4966301;28;20477;-69
2021/05/16 09:22:40;;;;;;;11.13;10.73;;;25.00;83.10;;;;;;5012239;28;20454;-69
2021/05/16 09:25:18;;;;;;;12.70;12.20;;;25.90;81.10;;;;;;5012047;28;20453;-69
2021/05/16 09:27:47;;;;;;;11.50;10.90;;;26.60;74.90;;;;;;5011908;28;20454;-69
2021/05/16 09:30:28;;;;;;;11.30;10.70;;;26.20;74.60;;;;;;5012189;28;20490;-69
2021/05/16 09:32:56;;;;;;;11.60;11.10;;;25.20;77.20;;;;;;5011847;28;20472;-68
2021/05/16 09:35:35;;;;;;;13.03;12.07;;;24.70;76.10;;;;;;5011813;28;20847;-68
2021/05/16 09:38:04;;;;;;;10.83;10.43;;;24.90;76.90;;;;;;5011895;28;20460;-67
2021/05/16 09:40:32;;;;;;;10.20;9.80;;;25.50;75.30;;;;;;5011916;28;20478;-68
2021/05/16 09:43:13;;;;;;;10.60;10.10;;;25.40;70.10;;;;;;5011149;28;20450;-68
2021/05/16 09:45:48;;;;;;;10.97;10.37;;;27.20;67.50;;;;;;5011188;28;20917;-67
2021/05/16 09:48:34;;;;;;;10.40;9.97;;;26.90;66.90;;;;;;5011289;28;20461;-68
2021/05/16 09:51:22;;;;;;;10.70;10.27;;;25.80;66.40;;;;;;5011177;28;20508;-67
2021/05/16 09:54:00;;;;;;;9.60;9.20;;;24.50;63.80;;;;;;5011209;28;21312;-67
2021/05/16 09:56:29;;;;;;;10.37;9.97;;;23.70;66.50;;;;;;5011282;28;20500;-68
2021/05/16 09:58:56;;;;;;;10.67;10.17;;;23.90;63.50;;;;;;5010958;28;20457;-68
2021/05/16 10:01:24;;;;;;;9.50;9.10;;;24.60;65.50;;;;;;5011125;28;20465;-67
2021/05/16 10:03:50;;;;;;;11.50;11.00;;;25.20;62.80;;;;;;5010671;28;20504;-68
2021/05/16 10:06:18;;;;;;;11.10;10.60;;;25.50;63.20;;;;;;5011004;28;20446;-69
2021/05/16 10:08:47;;;;;;;10.70;10.10;;;26.20;61.90;;;;;;5010831;28;20457;-68
2021/05/16 10:11:15;;;;;;;10.90;10.10;;;26.50;58.50;;;;;;5011090;28;20880;-67
2021/05/16 10:13:46;;;;;;;10.00;9.50;;;25.50;59.40;;;;;;5010790;28;20457;-67
2021/05/16 10:16:16;;;;;;;10.17;9.77;;;24.80;61.30;;;;;;5010981;28;20489;-68
2021/05/16 10:18:45;;;;;;;10.30;9.70;;;24.60;62.00;;;;;;5010432;28;20457;-68
2021/05/16 10:21:12;;;;;;;10.70;10.03;;;25.10;59.90;;;;;;5010248;28;20458;-68
2021/05/16 10:23:39;;;;;;;11.70;10.90;;;26.50;58.40;;;;;;5010627;28;20970;-68
2021/05/16 10:26:25;;;;;;;11.57;10.87;;;27.80;54.50;;;;;;5010637;28;20449;-69
2021/05/16 10:29:02;;;;;;;12.03;11.53;;;28.70;51.00;;;;;;5010663;28;20450;-68
2021/05/16 10:31:50;;;;;;;11.67;11.07;;;29.60;50.00;;;;;;5010744;28;20437;-68
2021/05/16 10:34:42;;;;;;;11.90;11.20;;;29.80;47.60;;;;;;5010772;28;20458;-69
2021/05/16 10:37:13;;;;;;;12.50;11.90;;;30.50;47.40;;;;;;5010679;28;20489;-69
2021/05/16 10:40:04;;;;;;;12.17;11.47;;;30.60;45.10;;;;;;5010553;28;20461;-68
2021/05/16 10:42:39;;;;;;;11.50;11.00;;;29.40;46.90;;;;;;4991294;28;20520;-68
2021/05/16 10:45:09;;;;;;;12.50;11.77;;;29.00;47.00;;;;;;5010535;28;20449;-68
2021/05/16 10:47:56;;;;;;;12.07;11.50;;;28.00;46.90;;;;;;5010349;28;20450;-68
2021/05/16 10:50:35;;;;;;;11.33;10.63;;;27.10;49.10;;;;;;5010499;28;20450;-67
2021/05/16 10:53:03;;;;;;;11.50;10.93;;;25.70;51.30;;;;;;5010498;28;20532;-68
2021/05/16 10:55:31;;;;;;;10.67;10.20;;;25.60;51.40;;;;;;5010320;28;20485;-67
2021/05/16 10:57:59;;;;;;;10.10;9.60;;;24.80;51.90;;;;;;5010154;28;20445;-67
2021/05/16 11:00:27;;;;;;;9.90;9.43;;;23.90;52.80;;;;;;5010441;28;20445;-67
2021/05/16 11:03:04;;;;;;;10.50;10.00;;;23.40;54.80;;;;;;5009835;28;21013;-67
2021/05/16 11:05:57;;;;;;;10.17;9.57;;;22.90;57.30;;;;;;5010419;28;20469;-67
2021/05/16 11:09:06;;;;;;;9.80;9.30;;;23.40;56.90;;;;;;5010165;28;20458;-68
2021/05/16 11:11:35;;;;;;;10.93;10.30;;;24.60;53.40;;;;;;5010297;28;20488;-67
2021/05/16 11:14:02;;;;;;;10.10;9.50;;;25.40;51.10;;;;;;5010379;28;20556;-68
2021/05/16 11:16:29;;;;;;;10.33;9.90;;;24.80;51.80;;;;;;5010084;28;20789;-67
2021/05/16 11:18:55;;;;;;;11.03;10.53;;;24.80;51.50;;;;;;5009949;28;20507;-68
2021/05/16 11:21:21;;;;;;;9.63;9.33;;;25.50;52.80;;;;;;5010088;28;20967;-67
2021/05/16 11:23:49;;;;;;;9.93;9.50;;;26.00;51.10;;;;;;5009948;28;20485;-67
2021/05/16 11:26:20;;;;;;;10.87;10.27;;;27.00;48.60;;;;;;5010113;28;20450;-68
2021/05/16 11:28:55;;;;;;;10.37;9.87;;;27.30;48.40;;;;;;5009972;28;20453;-68
2021/05/16 11:31:25;;;;;;;11.27;10.77;;;26.60;47.90;;;;;;5009970;28;20460;-68
2021/05/16 11:33:52;;;;;;;11.03;10.53;;;26.20;49.20;;;;;;5012800;28;20453;-67
2021/05/16 11:36:20;;;;;;;10.97;10.57;;;26.40;48.00;;;;;;5013767;28;20482;-67
2021/05/16 11:38:48;;;;;;;10.07;9.67;;;26.30;47.80;;;;;;5013507;28;20457;-68
2021/05/16 11:41:24;;;;;;;12.33;11.70;;;25.80;48.90;;;;;;5013676;28;20450;-68
2021/05/16 11:43:51;;;;;;;10.73;10.33;;;25.70;49.90;;;;;;5013287;28;20539;-69
2021/05/16 11:46:25;;;;;;;10.13;9.60;;;26.20;48.00;;;;;;5013449;28;20445;-68
2021/05/16 11:48:52;;;;;;;11.43;10.73;;;26.20;47.80;;;;;;5013588;28;20453;-70
2021/05/16 11:51:18;;;;;;;10.60;10.13;;;27.30;46.90;;;;;;5013565;28;20774;-68
2021/05/16 11:53:50;;;;;;;11.77;11.13;;;28.20;47.10;;;;;;5013208;28;20589;-68
2021/05/16 11:56:18;;;;;;;11.53;10.73;;;28.90;44.80;;;;;;5013287;28;20508;-68
2021/05/16 11:58:48;;;;;;;11.00;10.60;;;28.70;42.60;;;;;;5013375;28;20453;-68
2021/05/16 12:01:14;;;;;;;10.60;10.20;;;27.70;44.90;;;;;;5013294;28;20504;-68
2021/05/16 12:03:59;;;;;;;10.67;10.10;;;28.10;43.40;;;;;;5012879;28;20489;-68
2021/05/16 12:06:26;;;;;;;10.10;9.80;;;28.20;42.80;;;;;;5013300;28;20541;-67
2021/05/16 12:09:00;;;;;;;10.10;9.70;;;28.30;42.40;;;;;;5012744;28;21002;-67
2021/05/16 12:11:29;;;;;;;10.00;9.60;;;27.50;43.90;;;;;;5013237;28;20534;-67
2021/05/16 12:14:07;;;;;;;11.30;10.80;;;27.10;44.90;;;;;;5012896;28;20465;-67
2021/05/16 12:16:34;;;;;;;10.67;10.20;;;28.50;43.90;;;;;;5012941;28;20489;-67
2021/05/16 12:19:01;;;;;;;10.60;10.10;;;28.70;42.40;;;;;;5013021;28;20465;-67
2021/05/16 12:21:27;;;;;;;10.53;10.13;;;27.80;44.30;;;;;;5013097;28;20450;-67
2021/05/16 12:23:57;;;;;;;9.70;9.20;;;26.90;46.40;;;;;;5012779;28;20462;-66
2021/05/16 12:26:24;;;;;;;10.10;9.70;;;26.00;48.40;;;;;;5012813;28;20446;-67
2021/05/16 12:28:51;;;;;;;10.77;10.17;;;25.70;49.20;;;;;;5012755;28;20463;-69
2021/05/16 12:31:18;;;;;;;10.30;9.90;;;25.00;49.70;;;;;;5012517;28;20552;-70
2021/05/16 12:33:46;;;;;;;10.67;10.13;;;24.00;50.90;;;;;;5012395;28;20458;-69
2021/05/16 12:36:13;;;;;;;10.00;9.40;;;23.60;51.40;;;;;;5012655;28;20509;-69
2021/05/16 12:38:45;;;;;;;9.80;9.40;;;23.50;51.10;;;;;;5012473;28;20515;-69